createdAt,value
2018-03-18T01:43:05.260Z,71.43
2018-03-18T01:43:05.826Z,71.25
2018-03-18T01:43:06.394Z,71.43
2018-03-18T01:43:07.032Z,71.34
2018-03-18T01:43:07.596Z,71.25
2018-03-18T01:43:08.222Z,71.19
2018-03-18T01:43:08.778Z,71.15
2018-03-18T01:43:09.397Z,71.34
2018-03-18T01:44:02.861Z,71.15
2018-03-18T01:44:03.430Z,70.96
2018-03-18T01:44:04.031Z,71.34
2018-03-18T01:44:04.630Z,71.34
2018-03-18T01:44:05.228Z,71.34
2018-03-18T01:44:05.839Z,70.96
2018-03-18T01:44:06.429Z,71.19
2018-03-18T01:44:07.028Z,71.34
2018-03-18T01:45:00.513Z,70.96
2018-03-18T01:45:01.090Z,70.87
2018-03-18T01:45:01.684Z,71.06
2018-03-18T01:45:02.284Z,70.96
2018-03-18T01:45:02.884Z,71.00
2018-03-18T01:45:03.483Z,70.96
2018-03-18T01:45:04.081Z,70.96
2018-03-18T01:45:04.682Z,71.09
2018-03-18T01:45:59.191Z,70.96
2018-03-18T01:45:59.759Z,71.06
2018-03-18T01:46:00.361Z,70.96
2018-03-18T01:46:00.958Z,70.96
2018-03-18T01:46:01.557Z,71.06
2018-03-18T01:46:02.157Z,70.87
2018-03-18T01:46:02.756Z,70.77
2018-03-18T01:46:03.356Z,70.96
2018-03-18T01:46:57.864Z,70.96
2018-03-18T01:46:58.435Z,70.96
2018-03-18T01:46:59.034Z,70.96
2018-03-18T01:46:59.634Z,71.06
2018-03-18T01:47:00.234Z,70.96
2018-03-18T01:47:00.833Z,71.06
2018-03-18T01:47:01.433Z,70.96
2018-03-18T01:47:02.033Z,70.96
2018-03-18T01:47:55.518Z,71.06
2018-03-18T01:47:56.088Z,70.96
2018-03-18T01:47:56.688Z,71.06
2018-03-18T01:47:57.286Z,71.06
2018-03-18T01:47:57.889Z,71.06
2018-03-18T01:47:58.487Z,71.15
2018-03-18T01:47:59.085Z,71.06
2018-03-18T01:47:59.686Z,70.96
2018-03-18T01:48:53.171Z,71.06
2018-03-18T01:48:53.740Z,71.34
2018-03-18T01:48:54.339Z,71.34
2018-03-18T01:48:54.940Z,71.28
2018-03-18T01:48:55.541Z,71.25
2018-03-18T01:48:56.139Z,70.49
2018-03-18T01:48:56.739Z,70.96
2018-03-18T01:48:57.342Z,70.49
2018-03-18T01:49:50.833Z,70.68
2018-03-18T01:49:51.394Z,70.58
2018-03-18T01:49:51.992Z,70.68
2018-03-18T01:49:52.591Z,70.39
2018-03-18T01:49:53.191Z,70.58
2018-03-18T01:49:53.791Z,70.58
2018-03-18T01:49:54.394Z,70.68
2018-03-18T01:49:54.991Z,70.96
2018-03-18T01:50:48.475Z,70.68
2018-03-18T01:50:49.046Z,70.68
2018-03-18T01:50:49.657Z,70.68
2018-03-18T01:50:50.243Z,70.68
2018-03-18T01:50:50.845Z,70.68
2018-03-18T01:50:51.442Z,70.68
2018-03-18T01:50:52.045Z,70.68
2018-03-18T01:50:52.642Z,70.68
2018-03-18T01:51:46.129Z,70.30
2018-03-18T01:51:46.697Z,70.30
2018-03-18T01:51:47.294Z,70.02
2018-03-18T01:51:47.895Z,70.02
2018-03-18T01:51:48.495Z,70.02
2018-03-18T01:51:49.093Z,70.20
2018-03-18T01:51:49.694Z,70.20
2018-03-18T01:51:50.294Z,70.11
2018-03-18T01:52:43.777Z,70.11
2018-03-18T01:52:44.347Z,70.15
2018-03-18T01:52:44.946Z,70.11
2018-03-18T01:52:45.550Z,70.11
2018-03-18T01:52:46.150Z,70.11
2018-03-18T01:52:46.745Z,69.96
2018-03-18T01:52:47.346Z,70.11
2018-03-18T01:52:47.946Z,69.96
2018-03-18T01:53:42.452Z,70.30
2018-03-18T01:53:43.024Z,70.30
2018-03-18T01:53:43.622Z,70.30
2018-03-18T01:53:44.222Z,70.30
2018-03-18T01:53:44.823Z,70.39
2018-03-18T01:53:45.423Z,70.30
2018-03-18T01:53:46.021Z,70.30
2018-03-18T01:53:46.621Z,70.39
2018-03-18T01:54:40.105Z,70.30
2018-03-18T01:54:40.676Z,70.24
2018-03-18T01:54:41.274Z,70.30
2018-03-18T01:54:41.875Z,70.39
2018-03-18T01:54:42.474Z,70.30
2018-03-18T01:54:43.074Z,70.30
2018-03-18T01:54:43.674Z,70.30
2018-03-18T01:54:44.275Z,70.20
2018-03-18T01:55:38.780Z,70.20
2018-03-18T01:55:39.352Z,70.15
2018-03-18T01:55:39.952Z,69.92
2018-03-18T01:55:40.549Z,70.30
2018-03-18T01:55:41.151Z,70.15
2018-03-18T01:55:41.749Z,70.20
2018-03-18T01:55:42.348Z,70.62
2018-03-18T01:55:42.948Z,70.02
2018-03-18T01:56:37.458Z,69.92
2018-03-18T01:56:38.026Z,70.39
2018-03-18T01:56:38.625Z,69.92
2018-03-18T01:56:39.226Z,69.83
2018-03-18T01:56:39.826Z,69.83
2018-03-18T01:56:40.427Z,69.83
2018-03-18T01:56:41.024Z,69.92
2018-03-18T01:56:41.624Z,70.39
2018-03-18T01:57:35.109Z,69.73
2018-03-18T01:57:35.684Z,70.02
2018-03-18T01:57:36.278Z,70.05
2018-03-18T01:57:36.878Z,69.73
2018-03-18T01:57:37.478Z,70.11
2018-03-18T01:57:38.080Z,70.02
2018-03-18T01:57:38.679Z,70.02
2018-03-18T01:57:39.278Z,69.64
2018-03-18T01:58:33.783Z,70.30
2018-03-18T01:58:34.353Z,70.30
2018-03-18T01:58:34.952Z,70.43
2018-03-18T01:58:35.552Z,70.20
2018-03-18T01:58:36.154Z,70.02
2018-03-18T01:58:36.753Z,70.20
2018-03-18T01:58:37.351Z,70.24
2018-03-18T01:58:37.952Z,70.20
2018-03-18T01:59:32.475Z,69.92
2018-03-18T01:59:33.030Z,69.92
2018-03-18T01:59:33.628Z,70.11
2018-03-18T01:59:34.231Z,70.30
2018-03-18T01:59:34.833Z,70.39
2018-03-18T01:59:35.429Z,69.96
2018-03-18T01:59:36.030Z,70.30
2018-03-18T01:59:36.628Z,70.30
2018-03-18T02:00:31.133Z,70.39
2018-03-18T02:00:31.706Z,70.39
2018-03-18T02:00:32.305Z,70.34
2018-03-18T02:00:32.903Z,70.39
2018-03-18T02:00:33.505Z,70.39
2018-03-18T02:00:34.104Z,69.96
2018-03-18T02:00:34.704Z,69.96
2018-03-18T02:00:35.308Z,70.30
2018-03-18T02:01:29.812Z,70.15
2018-03-18T02:01:30.381Z,70.05
2018-03-18T02:01:30.985Z,70.02
2018-03-18T02:01:31.581Z,69.92
2018-03-18T02:01:32.181Z,69.92
2018-03-18T02:01:32.780Z,69.96
2018-03-18T02:01:33.380Z,70.49
2018-03-18T02:01:33.979Z,69.96
2018-03-18T02:02:27.463Z,70.43
2018-03-18T02:02:28.036Z,70.34
2018-03-18T02:02:28.638Z,70.30
2018-03-18T02:02:29.233Z,70.43
2018-03-18T02:02:29.833Z,70.30
2018-03-18T02:02:30.448Z,70.39
2018-03-18T02:02:31.035Z,70.30
2018-03-18T02:02:31.629Z,70.24
2018-03-18T02:03:26.143Z,70.15
2018-03-18T02:03:26.708Z,70.20
2018-03-18T02:03:27.308Z,70.24
2018-03-18T02:03:27.906Z,70.34
2018-03-18T02:03:28.507Z,70.34
2018-03-18T02:03:29.109Z,70.34
2018-03-18T02:03:29.707Z,70.34
2018-03-18T02:03:30.308Z,70.34
2018-03-18T02:04:23.791Z,70.15
2018-03-18T02:04:24.370Z,70.11
2018-03-18T02:04:24.964Z,70.15
2018-03-18T02:04:25.587Z,70.05
2018-03-18T02:04:26.157Z,70.15
2018-03-18T02:04:26.757Z,70.15
2018-03-18T02:04:27.358Z,70.15
2018-03-18T02:04:27.963Z,70.24
2018-03-18T02:05:21.441Z,70.05
2018-03-18T02:05:22.012Z,70.43
2018-03-18T02:05:22.614Z,70.34
2018-03-18T02:05:23.211Z,70.05
2018-03-18T02:05:23.811Z,70.34
2018-03-18T02:05:24.411Z,70.15
2018-03-18T02:05:25.011Z,70.53
2018-03-18T02:05:25.609Z,69.96
2018-03-18T02:06:19.094Z,70.34
2018-03-18T02:06:19.665Z,70.15
2018-03-18T02:06:20.264Z,70.34
2018-03-18T02:06:20.863Z,70.24
2018-03-18T02:06:21.463Z,69.96
2018-03-18T02:06:22.074Z,70.24
2018-03-18T02:06:22.662Z,70.34
2018-03-18T02:06:23.262Z,69.96
2018-03-18T02:07:17.770Z,70.43
2018-03-18T02:07:18.343Z,70.34
2018-03-18T02:07:18.936Z,69.86
2018-03-18T02:07:19.537Z,70.43
2018-03-18T02:07:20.140Z,70.05
2018-03-18T02:07:20.737Z,70.15
2018-03-18T02:07:21.337Z,70.24
2018-03-18T02:07:21.941Z,70.05
2018-03-18T02:08:15.422Z,70.53
2018-03-18T02:08:15.990Z,70.62
2018-03-18T02:08:16.594Z,70.62
2018-03-18T02:08:17.190Z,70.53
2018-03-18T02:08:17.791Z,70.53
2018-03-18T02:08:18.389Z,71.28
2018-03-18T02:08:18.989Z,70.43
2018-03-18T02:08:19.595Z,71.37
2018-03-18T02:09:13.072Z,71.09
2018-03-18T02:09:13.665Z,71.06
2018-03-18T02:09:14.245Z,71.09
2018-03-18T02:09:14.844Z,71.09
2018-03-18T02:09:15.443Z,71.09
2018-03-18T02:09:16.042Z,71.28
2018-03-18T02:09:16.641Z,71.09
2018-03-18T02:09:17.241Z,71.19
2018-03-18T02:10:11.748Z,71.06
2018-03-18T02:10:12.317Z,71.09
2018-03-18T02:10:12.917Z,71.09
2018-03-18T02:10:13.519Z,71.00
2018-03-18T02:10:14.117Z,70.62
2018-03-18T02:10:14.715Z,70.58
2018-03-18T02:10:15.316Z,70.90
2018-03-18T02:10:15.916Z,71.00
2018-03-18T02:11:10.424Z,71.19
2018-03-18T02:11:10.994Z,71.34
2018-03-18T02:11:11.592Z,71.37
2018-03-18T02:11:12.194Z,71.25
2018-03-18T02:11:12.792Z,71.19
2018-03-18T02:11:13.393Z,71.37
2018-03-18T02:11:13.992Z,71.15
2018-03-18T02:11:14.591Z,70.96
2018-03-18T02:12:08.075Z,71.19
2018-03-18T02:12:08.646Z,70.68
2018-03-18T02:12:09.249Z,71.06
2018-03-18T02:12:09.846Z,71.06
2018-03-18T02:12:10.451Z,70.58
2018-03-18T02:13:24.978Z,70.49
2018-03-18T02:13:25.548Z,71.09
2018-03-18T02:13:26.148Z,70.87
2018-03-18T02:13:26.748Z,71.00
2018-03-18T02:13:27.347Z,71.06
2018-03-18T02:13:27.947Z,71.09
2018-03-18T02:13:28.546Z,70.87
2018-03-18T02:13:29.147Z,70.96
2018-03-18T02:14:23.654Z,71.09
2018-03-18T02:14:24.223Z,71.00
2018-03-18T02:14:24.823Z,70.96
2018-03-18T02:14:25.423Z,71.00
2018-03-18T02:14:26.022Z,71.19
2018-03-18T02:14:26.621Z,70.96
2018-03-18T02:14:27.222Z,70.77
2018-03-18T02:14:27.823Z,70.96
2018-03-18T02:15:21.306Z,70.62
2018-03-18T02:15:21.875Z,70.58
2018-03-18T02:15:22.476Z,70.62
2018-03-18T02:15:23.075Z,70.90
2018-03-18T02:15:23.675Z,70.90
2018-03-18T02:15:24.275Z,70.62
2018-03-18T02:15:24.895Z,70.62
2018-03-18T02:15:25.474Z,70.96
2018-03-18T02:16:19.989Z,71.15
2018-03-18T02:16:20.552Z,71.66
2018-03-18T02:16:21.150Z,71.56
2018-03-18T02:16:21.757Z,71.62
2018-03-18T02:16:22.350Z,71.47
2018-03-18T02:16:22.950Z,71.62
2018-03-18T02:16:23.550Z,71.25
2018-03-18T02:16:24.150Z,71.62
2018-03-18T02:17:18.657Z,71.09
2018-03-18T02:17:19.226Z,71.47
2018-03-18T02:17:19.825Z,71.43
2018-03-18T02:17:20.426Z,71.34
2018-03-18T02:17:21.025Z,71.53
2018-03-18T02:17:21.625Z,71.47
2018-03-18T02:17:22.225Z,71.34
2018-03-18T02:17:22.824Z,71.06
2018-03-18T02:18:16.309Z,71.34
2018-03-18T02:18:16.880Z,71.47
2018-03-18T02:18:17.485Z,71.34
2018-03-18T02:18:18.079Z,71.43
2018-03-18T02:18:18.679Z,71.43
2018-03-18T02:18:19.279Z,71.37
2018-03-18T02:18:19.877Z,71.47
2018-03-18T02:18:20.478Z,71.34
2018-03-18T02:19:14.984Z,71.19
2018-03-18T02:19:15.553Z,70.81
2018-03-18T02:19:16.152Z,70.81
2018-03-18T02:19:16.753Z,71.19
2018-03-18T02:19:17.353Z,70.87
2018-03-18T02:19:17.952Z,70.77
2018-03-18T02:19:18.552Z,70.58
2018-03-18T02:19:19.152Z,70.77
2018-03-18T02:20:12.637Z,71.15
2018-03-18T02:20:13.206Z,70.90
2018-03-18T02:20:13.809Z,71.15
2018-03-18T02:20:14.406Z,71.15
2018-03-18T02:20:15.005Z,71.28
2018-03-18T02:20:15.604Z,71.06
2018-03-18T02:20:16.206Z,71.15
2018-03-18T02:20:16.805Z,70.77
2018-03-18T02:21:10.288Z,71.25
2018-03-18T02:21:10.884Z,71.25
2018-03-18T02:21:11.462Z,71.25
2018-03-18T02:21:12.056Z,71.62
2018-03-18T02:21:12.657Z,71.43
2018-03-18T02:21:13.257Z,71.15
2018-03-18T02:21:13.857Z,71.15
2018-03-18T02:21:14.456Z,71.25
2018-03-18T02:22:08.966Z,71.37
2018-03-18T02:22:09.569Z,71.25
2018-03-18T02:22:10.137Z,71.53
2018-03-18T02:22:10.733Z,71.34
2018-03-18T02:22:11.333Z,71.34
2018-03-18T02:22:11.932Z,71.15
2018-03-18T02:22:12.531Z,71.15
2018-03-18T02:22:13.132Z,71.34
2018-03-18T02:23:06.616Z,71.28
2018-03-18T02:23:07.185Z,71.34
2018-03-18T02:23:07.789Z,71.28
2018-03-18T02:23:08.388Z,71.62
2018-03-18T02:23:08.983Z,71.66
2018-03-18T02:23:09.583Z,71.09
2018-03-18T02:23:10.184Z,71.25
2018-03-18T02:23:10.782Z,71.25
2018-03-18T02:24:05.289Z,71.66
2018-03-18T02:24:05.860Z,71.34
2018-03-18T02:24:06.460Z,71.25
2018-03-18T02:24:07.060Z,71.43
2018-03-18T02:24:07.661Z,71.62
2018-03-18T02:24:08.259Z,71.34
2018-03-18T02:24:08.859Z,71.43
2018-03-18T02:24:09.458Z,71.56
2018-03-18T02:25:03.967Z,71.53
2018-03-18T02:25:04.534Z,71.43
2018-03-18T02:25:05.135Z,71.34
2018-03-18T02:25:05.738Z,71.53
2018-03-18T02:25:06.335Z,71.25
2018-03-18T02:25:06.934Z,71.43
2018-03-18T02:25:07.535Z,71.43
2018-03-18T02:25:08.135Z,71.43
2018-03-18T02:26:02.641Z,71.25
2018-03-18T02:26:03.212Z,71.19
2018-03-18T02:26:03.811Z,71.25
2018-03-18T02:26:04.410Z,71.34
2018-03-18T02:26:05.018Z,71.28
2018-03-18T02:26:05.615Z,71.15
2018-03-18T02:26:06.210Z,71.37
2018-03-18T02:26:06.810Z,71.53
2018-03-18T02:27:00.295Z,71.34
2018-03-18T02:27:00.864Z,71.25
2018-03-18T02:27:01.466Z,71.34
2018-03-18T02:27:02.065Z,71.34
2018-03-18T02:27:02.666Z,71.34
2018-03-18T02:27:03.263Z,71.34
2018-03-18T02:27:03.862Z,71.25
2018-03-18T02:27:04.464Z,71.34
2018-03-18T02:27:58.969Z,71.19
2018-03-18T02:27:59.537Z,71.25
2018-03-18T02:28:00.142Z,71.09
2018-03-18T02:28:00.738Z,71.37
2018-03-18T02:28:01.339Z,71.06
2018-03-18T02:28:01.938Z,71.09
2018-03-18T02:28:02.540Z,71.06
2018-03-18T02:28:03.136Z,71.06
2018-03-18T02:28:57.646Z,71.47
2018-03-18T02:28:58.216Z,71.28
2018-03-18T02:28:58.819Z,71.25
2018-03-18T02:28:59.415Z,71.25
2018-03-18T02:29:00.015Z,71.25
2018-03-18T02:29:00.613Z,71.06
2018-03-18T02:29:01.213Z,71.43
2018-03-18T02:29:01.814Z,71.62
2018-03-18T02:29:55.298Z,71.43
2018-03-18T02:29:55.866Z,71.47
2018-03-18T02:29:56.465Z,71.28
2018-03-18T02:29:57.069Z,71.34
2018-03-18T02:29:57.667Z,71.43
2018-03-18T02:29:58.266Z,71.43
2018-03-18T02:29:58.866Z,71.34
2018-03-18T02:29:59.465Z,71.37
2018-03-18T02:30:53.973Z,71.34
2018-03-18T02:30:54.542Z,71.25
2018-03-18T02:30:55.143Z,71.25
2018-03-18T02:30:55.741Z,71.34
2018-03-18T02:30:56.341Z,71.34
2018-03-18T02:30:56.974Z,71.28
2018-03-18T02:30:57.540Z,71.34
2018-03-18T02:30:58.143Z,71.43
2018-03-18T02:31:51.629Z,71.15
2018-03-18T02:31:52.202Z,71.15
2018-03-18T02:31:52.796Z,71.15
2018-03-18T02:31:53.395Z,71.15
2018-03-18T02:31:54.002Z,71.06
2018-03-18T02:31:54.595Z,71.19
2018-03-18T02:31:55.194Z,71.15
2018-03-18T02:31:55.794Z,71.43
2018-03-18T02:32:50.306Z,71.43
2018-03-18T02:32:50.869Z,71.06
2018-03-18T02:32:51.469Z,71.06
2018-03-18T02:32:52.070Z,71.47
2018-03-18T02:32:52.668Z,71.06
2018-03-18T02:32:53.278Z,71.37
2018-03-18T02:32:53.868Z,71.43
2018-03-18T02:32:54.467Z,71.34
2018-03-18T02:33:48.974Z,71.43
2018-03-18T02:33:49.545Z,71.15
2018-03-18T02:33:50.145Z,71.15
2018-03-18T02:33:50.745Z,71.34
2018-03-18T02:33:51.345Z,71.34
2018-03-18T02:33:51.945Z,71.37
2018-03-18T02:33:52.544Z,71.34
2018-03-18T02:33:53.144Z,71.53
2018-03-18T02:34:46.632Z,71.15
2018-03-18T02:34:47.198Z,71.28
2018-03-18T02:34:47.795Z,71.28
2018-03-18T02:34:48.398Z,71.09
2018-03-18T02:34:48.998Z,71.56
2018-03-18T02:34:49.597Z,71.37
2018-03-18T02:34:50.197Z,71.15
2018-03-18T02:34:50.797Z,71.15
2018-03-18T02:35:44.279Z,71.43
2018-03-18T02:35:44.868Z,71.19
2018-03-18T02:35:45.452Z,71.34
2018-03-18T02:35:46.047Z,71.15
2018-03-18T02:35:46.646Z,71.28
2018-03-18T02:35:47.250Z,71.43
2018-03-18T02:35:47.847Z,71.34
2018-03-18T02:35:48.447Z,71.34
2018-03-18T02:36:42.956Z,71.34
2018-03-18T02:36:43.524Z,71.34
2018-03-18T02:36:44.124Z,71.34
2018-03-18T02:36:44.723Z,71.25
2018-03-18T02:36:45.323Z,71.34
2018-03-18T02:36:45.921Z,71.34
2018-03-18T02:36:46.526Z,71.15
2018-03-18T02:36:47.125Z,71.43
2018-03-18T02:37:40.612Z,71.25
2018-03-18T02:37:41.174Z,71.15
2018-03-18T02:37:41.781Z,71.06
2018-03-18T02:37:42.378Z,71.25
2018-03-18T02:37:42.980Z,71.43
2018-03-18T02:37:43.574Z,71.25
2018-03-18T02:37:44.173Z,71.15
2018-03-18T02:37:44.775Z,71.25
2018-03-18T02:38:38.260Z,71.43
2018-03-18T02:38:38.826Z,71.34
2018-03-18T02:38:39.431Z,71.34
2018-03-18T02:38:40.031Z,71.15
2018-03-18T02:38:40.634Z,71.25
2018-03-18T02:38:41.224Z,71.28
2018-03-18T02:38:41.825Z,71.09
2018-03-18T02:38:42.425Z,71.25
2018-03-18T02:39:36.932Z,71.53
2018-03-18T02:39:37.503Z,71.25
2018-03-18T02:56:36.639Z,71.15
2018-03-18T02:56:37.206Z,71.62
2018-03-18T02:56:37.806Z,71.15
2018-03-18T02:56:38.404Z,71.25
2018-03-18T02:56:39.012Z,71.62
2018-03-18T02:56:39.603Z,71.15
2018-03-18T02:56:40.203Z,71.25
2018-03-18T02:56:40.807Z,71.06
2018-03-18T02:57:35.313Z,70.87
2018-03-18T02:57:35.895Z,71.06
2018-03-18T02:57:36.482Z,71.06
2018-03-18T02:57:37.080Z,70.77
2018-03-18T02:57:37.681Z,70.77
2018-03-18T02:57:38.280Z,71.06
2018-03-18T02:57:38.879Z,70.96
2018-03-18T02:57:39.481Z,71.06
2018-03-18T02:58:33.996Z,70.87
2018-03-18T02:58:34.561Z,70.96
2018-03-18T02:58:35.157Z,70.96
2018-03-18T02:58:35.757Z,70.96
2018-03-18T02:58:36.356Z,70.96
2018-03-18T02:58:36.961Z,70.87
2018-03-18T02:58:37.556Z,70.87
2018-03-18T02:58:38.156Z,71.15
2018-03-18T02:59:32.666Z,70.96
2018-03-18T02:59:33.234Z,71.06
2018-03-18T02:59:33.834Z,71.06
2018-03-18T02:59:34.440Z,71.06
2018-03-18T02:59:35.032Z,70.96
2018-03-18T02:59:35.632Z,71.06
2018-03-18T02:59:36.231Z,70.96
2018-03-18T02:59:36.830Z,70.96
2018-03-18T03:00:31.340Z,70.96
2018-03-18T03:00:31.924Z,70.77
2018-03-18T03:00:32.516Z,70.87
2018-03-18T03:00:33.110Z,71.06
2018-03-18T03:00:33.711Z,70.96
2018-03-18T03:00:34.310Z,70.77
2018-03-18T03:00:34.917Z,71.06
2018-03-18T03:00:35.508Z,70.77
2018-03-18T03:01:30.015Z,70.87
2018-03-18T03:01:30.594Z,70.68
2018-03-18T03:01:31.186Z,70.96
2018-03-18T03:01:31.790Z,70.87
2018-03-18T03:01:32.392Z,70.77
2018-03-18T03:01:32.987Z,70.58
2018-03-18T03:01:33.587Z,70.68
2018-03-18T03:01:34.182Z,70.58
2018-03-18T03:02:28.697Z,71.15
2018-03-18T03:02:29.263Z,71.06
2018-03-18T03:02:29.862Z,71.06
2018-03-18T03:02:30.463Z,71.15
2018-03-18T03:02:31.064Z,71.15
2018-03-18T03:02:31.660Z,70.96
2018-03-18T03:02:32.261Z,71.25
2018-03-18T03:02:32.860Z,71.06
2018-03-18T03:03:26.345Z,71.25
2018-03-18T03:03:26.915Z,71.15
2018-03-18T03:03:27.515Z,71.72
2018-03-18T03:03:28.130Z,71.25
2018-03-18T03:03:28.717Z,71.62
2018-03-18T03:03:29.314Z,71.06
2018-03-18T03:03:29.915Z,71.25
2018-03-18T03:03:30.513Z,71.25
2018-03-18T03:04:23.996Z,70.77
2018-03-18T03:04:24.568Z,70.87
2018-03-18T03:04:25.167Z,71.06
2018-03-18T03:04:25.767Z,70.87
2018-03-18T03:04:26.370Z,71.06
2018-03-18T03:04:26.969Z,71.06
2018-03-18T03:04:27.566Z,70.96
2018-03-18T03:04:28.168Z,70.77
2018-03-18T03:05:22.679Z,70.30
2018-03-18T03:05:23.242Z,70.11
2018-03-18T03:05:23.841Z,70.58
2018-03-18T03:05:24.442Z,70.30
2018-03-18T03:05:25.044Z,70.30
2018-03-18T03:05:25.676Z,70.58
2018-03-18T03:05:26.239Z,70.30
2018-03-18T03:05:26.841Z,70.30
2018-03-18T03:06:21.347Z,70.30
2018-03-18T03:06:21.918Z,70.58
2018-03-18T03:06:22.517Z,70.58
2018-03-18T03:06:23.124Z,70.49
2018-03-18T03:06:23.717Z,70.58
2018-03-18T03:06:24.318Z,70.58
2018-03-18T03:06:24.916Z,70.58
2018-03-18T03:06:25.517Z,70.58
2018-03-18T03:07:20.024Z,71.06
2018-03-18T03:07:20.598Z,71.06
2018-03-18T03:07:21.194Z,70.77
2018-03-18T03:07:21.793Z,70.96
2018-03-18T03:07:22.397Z,70.96
2018-03-18T03:07:22.991Z,70.96
2018-03-18T03:07:23.592Z,70.96
2018-03-18T03:07:24.193Z,70.96
2018-03-18T03:08:18.700Z,70.87
2018-03-18T03:08:19.271Z,70.96
2018-03-18T03:08:19.883Z,70.58
2018-03-18T03:08:20.471Z,71.06
2018-03-18T03:08:21.067Z,71.15
2018-03-18T03:08:21.677Z,71.15
2018-03-18T03:08:22.266Z,71.15
2018-03-18T03:08:22.866Z,71.15
2018-03-18T03:09:16.351Z,71.06
2018-03-18T03:09:16.922Z,71.06
2018-03-18T03:09:17.521Z,71.06
2018-03-18T03:09:18.120Z,71.06
2018-03-18T03:09:18.721Z,71.25
2018-03-18T03:09:19.320Z,71.25
2018-03-18T03:09:19.922Z,71.06
2018-03-18T03:09:20.522Z,71.25
2018-03-18T03:10:15.028Z,71.15
2018-03-18T03:10:15.596Z,71.06
2018-03-18T03:10:16.195Z,71.25
2018-03-18T03:10:16.796Z,71.15
2018-03-18T03:10:17.397Z,71.15
2018-03-18T03:10:17.995Z,71.15
2018-03-18T03:10:18.596Z,71.15
2018-03-18T03:10:19.195Z,71.15
2018-03-18T03:11:13.703Z,71.25
2018-03-18T03:11:14.293Z,71.34
2018-03-18T03:11:14.871Z,71.25
2018-03-18T03:11:15.471Z,71.25
2018-03-18T03:11:16.073Z,71.25
2018-03-18T03:11:16.671Z,71.25
2018-03-18T03:11:17.269Z,71.25
2018-03-18T03:11:17.870Z,71.43
2018-03-18T03:12:11.354Z,70.87
2018-03-18T03:12:11.922Z,70.96
2018-03-18T03:12:12.523Z,70.96
2018-03-18T03:12:13.124Z,70.87
2018-03-18T03:12:13.724Z,70.96
2018-03-18T03:12:14.361Z,70.77
2018-03-18T03:12:14.929Z,70.96
2018-03-18T03:12:15.533Z,71.06
2018-03-18T03:13:09.007Z,71.06
2018-03-18T03:13:09.576Z,71.15
2018-03-18T03:13:10.188Z,70.87
2018-03-18T03:13:10.776Z,70.87
2018-03-18T03:13:11.375Z,71.06
2018-03-18T03:13:11.974Z,70.87
2018-03-18T03:13:12.575Z,71.06
2018-03-18T03:13:13.174Z,70.87
2018-03-18T03:14:06.657Z,71.06
2018-03-18T03:14:07.229Z,71.06
2018-03-18T03:14:07.834Z,71.06
2018-03-18T03:14:08.428Z,70.77
2018-03-18T03:14:09.027Z,70.96
2018-03-18T03:14:09.628Z,70.87
2018-03-18T03:14:10.227Z,70.96
2018-03-18T03:14:10.827Z,70.96
2018-03-18T03:15:05.335Z,71.06
2018-03-18T03:15:05.906Z,70.68
2018-03-18T03:15:06.502Z,70.49
2018-03-18T03:15:07.102Z,71.06
2018-03-18T03:15:07.706Z,71.06
2018-03-18T03:15:08.301Z,70.68
2018-03-18T03:15:08.900Z,70.77
2018-03-18T03:15:09.502Z,70.77
2018-03-18T03:16:04.008Z,70.58
2018-03-18T03:16:04.579Z,70.68
2018-03-18T03:16:05.177Z,70.58
2018-03-18T03:16:05.780Z,70.49
2018-03-18T03:16:06.377Z,70.49
2018-03-18T03:16:06.982Z,70.58
2018-03-18T03:16:07.577Z,70.58
2018-03-18T03:16:08.177Z,70.58
2018-03-18T03:17:02.684Z,70.39
2018-03-18T03:17:03.254Z,70.49
2018-03-18T03:17:03.853Z,70.39
2018-03-18T03:17:04.453Z,70.39
2018-03-18T03:17:05.058Z,70.39
2018-03-18T03:17:05.677Z,70.39
2018-03-18T03:17:06.250Z,70.20
2018-03-18T03:17:06.853Z,70.30
2018-03-18T03:18:01.362Z,70.20
2018-03-18T03:18:01.929Z,70.20
2018-03-18T03:18:02.529Z,70.11
2018-03-18T03:18:03.128Z,70.20
2018-03-18T03:18:03.728Z,70.30
2018-03-18T03:18:04.328Z,70.30
2018-03-18T03:18:04.929Z,70.30
2018-03-18T03:18:05.534Z,70.02
2018-03-18T03:18:59.012Z,70.68
2018-03-18T03:18:59.583Z,70.49
2018-03-18T03:19:00.184Z,70.49
2018-03-18T03:19:00.782Z,70.49
2018-03-18T03:19:01.382Z,70.39
2018-03-18T03:19:01.982Z,70.58
2018-03-18T03:19:02.584Z,70.58
2018-03-18T03:19:03.186Z,70.39
2018-03-18T03:19:56.663Z,70.58
2018-03-18T03:19:57.233Z,70.58
2018-03-18T03:19:57.840Z,70.58
2018-03-18T03:19:58.434Z,70.58
2018-03-18T03:19:59.032Z,70.49
2018-03-18T03:19:59.632Z,70.58
2018-03-18T03:20:00.232Z,70.58
2018-03-18T03:20:00.833Z,70.58
2018-03-18T03:20:54.317Z,70.39
2018-03-18T03:20:54.885Z,70.39
2018-03-18T03:20:55.484Z,70.20
2018-03-18T03:20:56.085Z,70.39
2018-03-18T03:20:56.686Z,70.20
2018-03-18T03:20:57.285Z,70.20
2018-03-18T03:20:57.888Z,70.39
2018-03-18T03:20:58.484Z,70.20
2018-03-18T03:21:52.989Z,70.30
2018-03-18T03:21:53.561Z,70.20
2018-03-18T03:21:54.164Z,70.30
2018-03-18T03:21:54.760Z,70.02
2018-03-18T03:21:55.361Z,70.02
2018-03-18T03:21:55.960Z,69.92
2018-03-18T03:21:56.561Z,69.73
2018-03-18T03:21:57.160Z,69.92
2018-03-18T03:22:50.642Z,69.73
2018-03-18T03:22:51.213Z,70.11
2018-03-18T03:22:51.817Z,70.02
2018-03-18T03:22:52.412Z,69.92
2018-03-18T03:22:53.012Z,69.92
2018-03-18T03:22:53.611Z,69.92
2018-03-18T03:22:54.212Z,69.92
2018-03-18T03:22:54.811Z,69.92
2018-03-18T03:23:48.295Z,70.20
2018-03-18T03:23:48.864Z,70.11
2018-03-18T03:23:49.470Z,69.92
2018-03-18T03:23:50.065Z,69.92
2018-03-18T03:23:50.668Z,70.11
2018-03-18T03:23:51.265Z,69.92
2018-03-18T03:23:51.864Z,70.20
2018-03-18T03:23:52.463Z,69.92
2018-03-18T03:24:46.969Z,70.11
2018-03-18T03:24:47.540Z,70.20
2018-03-18T03:24:48.138Z,70.11
2018-03-18T03:24:48.739Z,70.02
2018-03-18T03:24:49.338Z,70.11
2018-03-18T03:24:49.940Z,70.11
2018-03-18T03:24:50.537Z,70.20
2018-03-18T03:24:51.138Z,70.02
2018-03-18T03:25:45.645Z,70.11
2018-03-18T03:25:46.217Z,70.39
2018-03-18T03:25:46.825Z,70.39
2018-03-18T03:25:47.416Z,70.39
2018-03-18T03:25:48.014Z,70.11
2018-03-18T03:25:48.614Z,70.02
2018-03-18T03:25:49.215Z,70.02
2018-03-18T03:25:49.815Z,70.11
2018-03-18T03:26:43.299Z,70.11
2018-03-18T03:26:43.868Z,70.11
2018-03-18T03:26:44.469Z,70.11
2018-03-18T03:26:45.068Z,70.11
2018-03-18T03:26:45.672Z,70.11
2018-03-18T03:26:46.267Z,70.11
2018-03-18T03:26:46.867Z,69.92
2018-03-18T03:26:47.465Z,70.11
2018-03-18T03:27:40.949Z,70.20
2018-03-18T03:27:41.520Z,70.20
2018-03-18T03:27:42.123Z,70.20
2018-03-18T03:27:42.718Z,70.20
2018-03-18T03:27:43.318Z,70.20
2018-03-18T03:27:43.918Z,69.92
2018-03-18T03:27:44.518Z,70.20
2018-03-18T03:27:45.117Z,70.11
2018-03-18T03:28:38.604Z,70.11
2018-03-18T03:28:39.170Z,70.02
2018-03-18T03:28:39.777Z,70.30
2018-03-18T03:28:40.370Z,70.30
2018-03-18T03:28:40.970Z,70.02
2018-03-18T03:28:41.569Z,70.20
2018-03-18T03:28:42.171Z,70.02
2018-03-18T03:28:42.769Z,70.11
2018-03-18T03:29:37.277Z,70.58
2018-03-18T03:29:37.846Z,70.49
2018-03-18T03:29:38.445Z,70.49
2018-03-18T03:29:39.045Z,70.58
2018-03-18T03:29:39.644Z,70.58
2018-03-18T03:29:40.245Z,70.39
2018-03-18T03:29:40.844Z,70.58
2018-03-18T03:29:41.443Z,70.49
2018-03-18T03:30:35.952Z,70.02
2018-03-18T03:30:36.522Z,70.02
2018-03-18T03:30:37.122Z,69.92
2018-03-18T03:30:37.721Z,70.20
2018-03-18T03:30:38.323Z,69.92
2018-03-18T03:30:38.922Z,70.39
2018-03-18T03:30:39.523Z,70.20
2018-03-18T03:30:40.122Z,70.11
2018-03-18T03:31:33.606Z,70.20
2018-03-18T03:31:34.174Z,70.02
2018-03-18T03:31:34.777Z,70.02
2018-03-18T03:31:35.375Z,70.30
2018-03-18T03:31:35.980Z,69.92
2018-03-18T03:31:36.574Z,69.92
2018-03-18T03:31:37.175Z,69.92
2018-03-18T03:31:37.773Z,69.92
2018-03-18T03:32:31.259Z,69.92
2018-03-18T03:32:31.827Z,69.92
2018-03-18T03:32:32.439Z,69.92
2018-03-18T03:32:33.026Z,70.11
2018-03-18T03:32:33.624Z,69.92
2018-03-18T03:32:34.224Z,70.11
2018-03-18T03:32:34.826Z,70.11
2018-03-18T03:32:35.425Z,70.11
2018-03-18T03:33:28.913Z,70.11
2018-03-18T03:33:29.480Z,69.92
2018-03-18T03:33:30.080Z,69.92
2018-03-18T03:33:30.681Z,69.92
2018-03-18T03:33:31.277Z,70.11
2018-03-18T03:33:31.889Z,69.92